Time;durP1;ratioP1;P1;durP2;ratioP2;P2;SDS_P1;SDS_P2;PMS_P1;PMS_P2;Temp;Humidity;BMP_temperature;BMP_pressure;BME280_temperature;BME280_humidity;BME280_pressure;Samples;Min_cycle;Max_cycle;Signal;HPM_P1;HPM_P2
2021/06/21 00:02:00;;;;;;;5.13;1.33;;;;;;;26.00;85.29;68841.38;5053151;28;20581;-71
2021/06/21 00:04:28;;;;;;;5.00;1.27;;;;;;;26.00;85.52;68841.53;5054807;28;20226;-73
2021/06/21 00:06:56;;;;;;;4.87;1.50;;;;;;;26.03;82.14;68845.03;5049606;28;20222;-74
2021/06/21 00:09:23;;;;;;;7.20;1.73;;;;;;;26.06;82.46;68848.47;5055188;28;20548;-73
2021/06/21 00:11:50;;;;;;;8.77;1.77;;;;;;;26.04;87.19;68846.78;5053857;28;20574;-72
2021/06/21 00:14:18;;;;;;;7.27;1.87;;;;;;;26.07;83.75;68850.13;5051356;28;20232;-72
2021/06/21 00:16:45;;;;;;;7.40;1.40;;;;;;;26.08;83.89;68851.22;5054296;28;20210;-73
2021/06/21 00:19:12;;;;;;;7.70;1.60;;;;;;;26.08;83.92;68851.81;5053801;28;20214;-72
2021/06/21 00:21:41;;;;;;;5.63;1.30;;;;;;;26.09;84.04;68852.66;5053601;28;20218;-73
2021/06/21 00:24:08;;;;;;;6.10;1.20;;;;;;;26.09;85.37;68853.13;5051901;28;20228;-71
2021/06/21 00:26:36;;;;;;;4.60;1.50;;;;;;;26.05;93.23;68847.97;5054741;28;20824;-73
2021/06/21 00:29:03;;;;;;;6.73;1.40;;;;;;;26.06;86.59;68849.41;5057369;28;20198;-73
2021/06/21 00:31:30;;;;;;;7.60;1.60;;;;;;;26.06;86.30;68848.66;5052183;28;20210;-72
2021/06/21 00:33:57;;;;;;;6.83;1.27;;;;;;;26.08;83.20;68851.69;5052759;28;20227;-74
2021/06/21 00:36:25;;;;;;;5.00;1.50;;;;;;;26.09;84.70;68852.44;5052317;28;20203;-73
2021/06/21 00:38:53;;;;;;;7.40;1.43;;;;;;;26.07;85.80;68850.41;5051022;28;20206;-73
2021/06/21 00:41:21;;;;;;;10.20;1.50;;;;;;;26.08;83.10;68852.31;5052670;28;20222;-72
2021/06/21 00:43:48;;;;;;;4.67;1.20;;;;;;;26.12;81.69;68856.22;5050879;28;20235;-74
2021/06/21 00:46:15;;;;;;;7.87;1.30;;;;;;;26.06;85.52;68850.59;5053579;28;20207;-73
2021/06/21 00:48:43;;;;;;;4.10;1.43;;;;;;;26.05;83.88;68849.50;5051788;28;20724;-73
2021/06/21 00:51:10;;;;;;;7.37;1.50;;;;;;;26.06;83.74;68850.00;5055716;28;20295;-74
2021/06/21 00:53:38;;;;;;;5.90;1.70;;;;;;;26.09;80.70;68853.56;5050996;28;20441;-73
2021/06/21 00:56:07;;;;;;;5.37;1.47;;;;;;;26.13;79.88;68858.44;5043283;28;20199;-73
2021/06/21 00:58:35;;;;;;;9.97;2.53;;;;;;;26.16;80.76;68861.44;5051822;28;20200;-74
2021/06/21 01:01:02;;;;;;;2.23;1.10;;;;;;;26.18;80.16;68864.06;5052747;28;20200;-72
2021/06/21 01:03:29;;;;;;;5.07;1.33;;;;;;;26.20;81.17;68866.66;5051191;28;20229;-73
2021/06/21 01:05:57;;;;;;;6.77;2.03;;;;;;;26.24;78.82;68870.34;5051810;28;20301;-73
2021/06/21 01:08:24;;;;;;;3.93;1.70;;;;;;;26.28;79.01;68875.34;5049346;28;20244;-74
2021/06/21 01:10:53;;;;;;;4.70;1.70;;;;;;;26.31;79.51;68878.78;5051350;28;20230;-73
2021/06/21 01:13:52;;;;;;;5.17;1.37;;;;;;;26.34;78.32;68882.09;5052806;28;20236;-73
2021/06/21 01:16:22;;;;;;;6.80;1.67;;;;;;;26.34;80.45;68882.09;5050516;28;20211;-74
2021/06/21 01:18:55;;;;;;;2.27;1.10;;;;;;;26.34;79.87;68882.72;5053894;28;20207;-72
2021/06/21 01:22:01;;;;;;;6.33;1.27;;;;;;;26.37;78.58;68886.47;5052509;28;20661;-74
2021/06/21 01:25:08;;;;;;;6.07;1.23;;;;;;;26.40;78.87;68889.75;5013718;28;20239;-73
2021/06/21 01:27:52;;;;;;;10.40;1.47;;;;;;;26.42;78.43;68892.22;5045928;28;20623;-74
2021/06/21 01:30:23;;;;;;;6.70;1.67;;;;;;;26.43;80.89;68892.16;5051332;28;20206;-73
2021/06/21 01:32:53;;;;;;;5.70;1.50;;;;;;;26.41;82.07;68890.50;5049409;28;20322;-72
2021/06/21 01:35:26;;;;;;;7.77;1.63;;;;;;;26.42;79.86;68892.22;5055348;28;20563;-75
2021/06/21 01:37:56;;;;;;;4.80;1.60;;;;;;;26.42;79.62;68892.38;5055409;28;20265;-74
2021/06/21 01:40:24;;;;;;;5.43;1.43;;;;;;;26.42;81.08;68892.16;5055413;28;20200;-74
2021/06/21 01:42:55;;;;;;;8.50;1.50;;;;;;;26.43;78.36;68893.97;5052281;28;20238;-74
2021/06/21 01:45:23;;;;;;;5.70;1.60;;;;;;;26.43;80.21;68893.81;5056986;28;20236;-73
2021/06/21 01:47:53;;;;;;;3.60;1.23;;;;;;;26.45;78.04;68896.56;5053256;28;20235;-73
2021/06/21 01:50:22;;;;;;;3.83;1.10;;;;;;;26.46;78.40;68897.81;5050277;28;20555;-72
2021/06/21 01:52:55;;;;;;;3.17;1.27;;;;;;;26.48;78.36;68900.47;5052473;28;20232;-73
2021/06/21 01:55:23;;;;;;;5.97;2.70;;;;;;;26.50;79.14;68902.19;5052210;28;20303;-73
2021/06/21 01:57:51;;;;;;;7.67;1.60;;;;;;;26.51;78.64;68904.25;5052810;28;20208;-73
2021/06/21 02:00:20;;;;;;;5.83;1.47;;;;;;;26.52;78.77;68905.41;5050347;28;20295;-73
2021/06/21 02:02:47;;;;;;;8.30;1.53;;;;;;;26.50;79.77;68902.81;5052636;28;20730;-74
2021/06/21 02:05:16;;;;;;;8.40;1.53;;;;;;;26.47;81.70;68899.25;5049574;28;20214;-74
2021/06/21 02:07:45;;;;;;;5.13;1.73;;;;;;;26.48;77.88;68900.88;5052794;28;20223;-74
2021/06/21 02:10:13;;;;;;;9.17;2.20;;;;;;;26.48;78.08;68900.91;5051027;28;20555;-73
2021/06/21 02:12:41;;;;;;;7.93;1.53;;;;;;;26.49;77.80;68902.41;5055974;28;20234;-72
2021/06/21 02:15:10;;;;;;;7.87;1.83;;;;;;;26.49;77.82;68902.50;5052225;28;20207;-74
2021/06/21 02:17:38;;;;;;;9.83;1.83;;;;;;;26.47;79.32;68900.66;5052831;28;20201;-73
2021/06/21 02:20:07;;;;;;;8.87;1.47;;;;;;;26.49;76.33;68902.84;5058826;28;20648;-74
2021/06/21 02:22:36;;;;;;;7.40;1.63;;;;;;;26.49;77.75;68902.84;5048654;28;20245;-75
2021/06/21 02:25:07;;;;;;;6.80;1.50;;;;;;;26.51;76.90;68904.59;5050564;28;20646;-72
2021/06/21 02:27:36;;;;;;;4.47;1.43;;;;;;;26.53;77.47;68907.13;5050232;28;20239;-73
2021/06/21 02:30:06;;;;;;;4.83;1.30;;;;;;;26.57;77.21;68911.09;5056492;28;20207;-73
2021/06/21 02:32:34;;;;;;;5.83;1.60;;;;;;;26.60;76.35;68914.53;5050391;28;20285;-74
2021/06/21 02:35:01;;;;;;;5.10;1.63;;;;;;;26.54;86.10;68907.81;5046645;28;20201;-75
2021/06/21 02:37:28;;;;;;;10.07;1.80;;;;;;;26.51;84.72;68904.97;5041635;28;20208;-74
2021/06/21 02:39:57;;;;;;;6.07;1.67;;;;;;;26.45;87.64;68898.59;5050750;28;20600;-74
2021/06/21 02:42:24;;;;;;;11.70;2.07;;;;;;;26.40;84.77;68893.31;5050353;28;20212;-73
2021/06/21 02:44:52;;;;;;;6.00;1.30;;;;;;;26.42;78.52;68895.50;5050172;28;20220;-73
2021/06/21 02:47:19;;;;;;;5.87;1.87;;;;;;;26.35;88.10;68887.94;5054337;28;20809;-75
2021/06/21 02:49:47;;;;;;;8.50;2.10;;;;;;;26.35;83.65;68887.94;5052996;28;20210;-74
2021/06/21 02:52:20;;;;;;;5.37;1.50;;;;;;;26.33;86.22;68885.88;5051823;28;20203;-74
2021/06/21 02:55:06;;;;;;;8.23;1.70;;;;;;;26.37;78.92;68890.53;5050693;28;20562;-75
2021/06/21 02:57:41;;;;;;;6.13;1.70;;;;;;;26.38;81.08;68891.50;5045934;28;20231;-73
2021/06/21 03:00:09;;;;;;;5.73;1.67;;;;;;;26.41;76.47;68895.28;5048964;28;20210;-74
2021/06/21 03:02:37;;;;;;;7.30;1.97;;;;;;;26.38;80.68;68891.97;5050805;28;20764;-74
2021/06/21 03:05:05;;;;;;;8.97;2.27;;;;;;;26.38;78.00;68892.59;5048943;28;20282;-74
2021/06/21 03:07:33;;;;;;;8.43;1.60;;;;;;;26.40;76.88;68894.72;5050717;28;20208;-73
2021/06/21 03:10:01;;;;;;;7.83;1.83;;;;;;;26.41;75.58;68895.69;5050516;28;20206;-74
2021/06/21 03:12:30;;;;;;;5.70;1.63;;;;;;;26.43;75.21;68898.28;5042545;28;20209;-73
2021/06/21 03:14:59;;;;;;;11.47;2.40;;;;;;;26.46;74.84;68901.44;5048441;28;20210;-74
2021/06/21 03:17:27;;;;;;;8.13;2.00;;;;;;;26.48;74.74;68904.03;5050537;28;20208;-72
2021/06/21 03:19:55;;;;;;;6.03;1.80;;;;;;;26.46;78.33;68902.06;5049383;28;20207;-72
2021/06/21 03:22:23;;;;;;;6.97;1.87;;;;;;;26.50;73.61;68905.97;5049864;28;20299;-75
2021/06/21 03:24:52;;;;;;;4.33;1.50;;;;;;;26.51;73.61;68907.75;5051804;28;20225;-73
2021/06/21 03:27:26;;;;;;;7.47;2.10;;;;;;;26.51;75.57;68908.28;5050441;28;20212;-73
2021/06/21 03:29:54;;;;;;;7.83;1.83;;;;;;;26.46;80.29;68902.69;5045011;28;20203;-74
2021/06/21 03:32:28;;;;;;;7.00;2.33;;;;;;;26.48;74.15;68905.03;5054105;28;20206;-73
2021/06/21 03:34:57;;;;;;;5.57;1.60;;;;;;;26.52;71.78;68910.66;5055516;28;20561;-73
2021/06/21 03:37:25;;;;;;;9.03;2.10;;;;;;;26.58;70.54;68916.72;5055155;28;20213;-75
2021/06/21 03:39:52;;;;;;;7.80;2.10;;;;;;;26.60;73.63;68918.72;5054740;28;20202;-72
2021/06/21 03:42:19;;;;;;;5.47;1.43;;;;;;;26.60;74.23;68919.28;5055948;28;20216;-73
2021/06/21 03:44:47;;;;;;;7.93;2.13;;;;;;;26.59;76.32;68918.59;5053156;28;20215;-73
2021/06/21 03:47:15;;;;;;;5.93;1.63;;;;;;;26.60;73.35;68919.19;5055778;28;20208;-73
2021/06/21 03:49:46;;;;;;;4.30;1.50;;;;;;;26.59;75.81;68918.50;5046968;28;20230;-72
2021/06/21 03:52:13;;;;;;;11.00;1.63;;;;;;;26.57;76.91;68915.63;5051177;28;20230;-72
2021/06/21 03:54:41;;;;;;;6.67;1.83;;;;;;;26.58;73.57;68916.59;5053235;28;20196;-73
2021/06/21 03:57:09;;;;;;;6.47;1.60;;;;;;;26.59;73.76;68917.84;5050743;28;20211;-73
2021/06/21 03:59:36;;;;;;;9.23;1.90;;;;;;;26.61;71.73;68920.72;5055598;28;20201;-72
2021/06/21 04:02:04;;;;;;;8.03;1.70;;;;;;;26.64;72.11;68923.78;5053316;28;20661;-73
2021/06/21 04:04:32;;;;;;;5.37;1.50;;;;;;;26.64;74.14;68923.50;5054396;28;20228;-73
2021/06/21 04:07:00;;;;;;;6.20;1.73;;;;;;;26.65;72.54;68924.94;5053039;28;20668;-72
2021/06/21 04:09:27;;;;;;;4.47;1.70;;;;;;;26.64;72.61;68924.06;5057417;28;20222;-72
2021/06/21 04:11:55;;;;;;;7.07;1.90;;;;;;;26.67;70.58;68927.81;5052431;28;20215;-72
2021/06/21 04:14:22;;;;;;;8.37;1.63;;;;;;;26.71;70.20;68932.47;5054890;28;20238;-73
2021/06/21 04:16:49;;;;;;;6.57;2.47;;;;;;;26.76;68.31;68937.47;5052474;28;20213;-73
2021/06/21 04:19:17;;;;;;;10.53;1.90;;;;;;;26.77;71.82;68939.06;5053149;28;20232;-73
2021/06/21 04:21:44;;;;;;;10.30;1.93;;;;;;;26.80;70.55;68942.53;5051652;28;20201;-73
2021/06/21 04:24:13;;;;;;;4.47;1.60;;;;;;;26.81;72.65;68943.66;5055379;28;20227;-73
2021/06/21 04:26:40;;;;;;;5.47;1.60;;;;;;;26.83;71.49;68945.84;5052867;28;20238;-73
2021/06/21 04:29:07;;;;;;;6.60;1.83;;;;;;;26.84;72.00;68947.22;5053644;28;20217;-73
2021/06/21 04:31:35;;;;;;;6.57;1.60;;;;;;;26.83;74.41;68946.53;5057789;28;20205;-73
2021/06/21 04:34:02;;;;;;;8.37;2.53;;;;;;;26.85;71.25;68948.44;5059336;28;20231;-73
2021/06/21 04:36:29;;;;;;;6.77;1.40;;;;;;;26.84;72.93;68948.03;5053087;28;20205;-73
2021/06/21 04:38:57;;;;;;;4.33;1.73;;;;;;;26.80;75.96;68943.41;5053364;28;20564;-73
2021/06/21 04:41:25;;;;;;;8.43;1.80;;;;;;;26.77;76.93;68939.41;5052750;28;20584;-72
2021/06/21 04:43:53;;;;;;;7.90;1.80;;;;;;;26.75;75.47;68937.84;5048450;28;20266;-73
2021/06/21 04:46:23;;;;;;;5.63;1.70;;;;;;;26.75;74.04;68937.91;5052443;28;20209;-73
2021/06/21 04:48:50;;;;;;;3.83;1.90;;;;;;;26.75;73.33;68938.53;5050668;28;20232;-73
2021/06/21 04:51:20;;;;;;;10.60;1.90;;;;;;;26.72;75.43;68934.84;5053696;28;20595;-73
2021/06/21 04:53:47;;;;;;;7.80;1.30;;;;;;;26.70;74.65;68933.63;5051876;28;20587;-72
2021/06/21 04:56:15;;;;;;;7.80;1.73;;;;;;;26.68;75.82;68931.25;5053390;28;20632;-72
2021/06/21 04:58:44;;;;;;;4.23;1.67;;;;;;;26.66;75.28;68928.69;5057284;28;20229;-72
2021/06/21 05:01:11;;;;;;;10.37;1.93;;;;;;;26.67;71.82;68930.44;5054869;28;20202;-73
2021/06/21 05:03:38;;;;;;;7.00;1.90;;;;;;;26.69;71.36;68932.66;5059721;28;20262;-73
2021/06/21 05:06:07;;;;;;;4.70;1.70;;;;;;;26.66;75.98;68929.31;5060787;28;20720;-73
2021/06/21 05:08:35;;;;;;;9.80;1.77;;;;;;;26.68;72.50;68931.44;5051706;28;20232;-72
2021/06/21 05:11:02;;;;;;;5.23;1.60;;;;;;;26.70;71.77;68933.75;5052522;28;20216;-73
2021/06/21 05:13:30;;;;;;;6.97;1.67;;;;;;;26.69;73.03;68933.03;5050175;28;20217;-72
2021/06/21 05:15:58;;;;;;;6.97;1.40;;;;;;;26.75;68.60;68940.38;5069912;28;20248;-73
2021/06/21 05:18:25;;;;;;;7.50;1.80;;;;;;;26.81;68.75;68947.63;5074100;28;20195;-77
2021/06/21 05:20:53;;;;;;;5.00;1.07;;;;;;;26.83;71.51;68949.13;5060769;28;20212;-73
2021/06/21 05:23:20;;;;;;;3.73;1.60;;;;;;;26.87;68.62;68954.03;5068835;28;20248;-70
2021/06/21 05:25:47;;;;;;;5.70;1.60;;;;;;;26.93;67.74;68960.00;5055713;28;20573;-70
2021/06/21 05:28:14;;;;;;;5.37;1.27;;;;;;;27.00;65.26;68967.59;5053790;28;20205;-70
2021/06/21 05:30:42;;;;;;;5.03;1.63;;;;;;;27.05;66.38;68973.22;5052820;28;20209;-74
2021/06/21 05:33:13;;;;;;;6.30;1.63;;;;;;;27.16;62.18;68985.25;5060409;28;20251;-72
2021/06/21 05:35:40;;;;;;;3.37;1.37;;;;;;;27.20;65.60;68990.44;5049502;28;20202;-76
2021/06/21 05:38:08;;;;;;;5.63;1.37;;;;;;;27.26;64.48;68997.22;5052692;28;20206;-74
2021/06/21 05:40:35;;;;;;;7.20;1.90;;;;;;;27.33;64.63;69005.47;5053217;28;20556;-70
2021/06/21 05:43:03;;;;;;;6.20;1.60;;;;;;;27.40;62.88;69013.97;5051468;28;20435;-71
2021/06/21 05:45:30;;;;;;;10.57;1.50;;;;;;;27.43;65.33;69017.13;5051303;28;20206;-69
2021/06/21 05:47:58;;;;;;;7.87;1.93;;;;;;;27.52;62.34;69027.59;5053556;28;20202;-74
2021/06/21 05:50:27;;;;;;;6.50;1.50;;;;;;;27.57;66.30;69032.31;5052004;28;20222;-72
2021/06/21 05:52:54;;;;;;;5.83;1.80;;;;;;;27.62;64.05;69038.34;5051126;28;20226;-72
2021/06/21 05:55:23;;;;;;;5.20;1.30;;;;;;;27.69;62.70;69046.09;5052062;28;20288;-72
2021/06/21 05:57:53;;;;;;;7.73;1.37;;;;;;;27.76;60.73;69054.69;5053382;28;20206;-72
2021/06/21 06:00:22;;;;;;;4.43;1.40;;;;;;;27.79;63.42;69058.34;5046686;28;20284;-72
2021/06/21 06:02:49;;;;;;;4.80;1.20;;;;;;;27.86;61.17;69065.53;5051491;28;20230;-71
2021/06/21 06:05:17;;;;;;;6.40;1.37;;;;;;;27.91;60.76;69071.44;5049902;28;20246;-69
2021/06/21 06:07:46;;;;;;;6.67;1.67;;;;;;;27.97;60.26;69077.31;5058040;28;20284;-70
2021/06/21 06:10:14;;;;;;;4.77;1.60;;;;;;;28.02;59.65;69084.09;5052544;28;20226;-69
2021/06/21 06:12:42;;;;;;;5.00;1.50;;;;;;;28.07;60.11;69088.66;5051447;28;20228;-72
2021/06/21 06:15:11;;;;;;;6.83;1.73;;;;;;;28.12;59.20;69095.31;5050017;28;20241;-73
2021/06/21 06:17:39;;;;;;;5.80;1.37;;;;;;;28.24;55.04;69108.38;5051644;28;20198;-74
2021/06/21 06:20:07;;;;;;;2.93;1.07;;;;;;;28.30;58.19;69116.00;5051706;28;20227;-70
2021/06/21 06:22:35;;;;;;;6.97;1.50;;;;;;;28.40;55.49;69127.06;5051125;28;20461;-68
2021/06/21 06:25:05;;;;;;;8.47;1.60;;;;;;;28.46;54.79;69134.44;5050461;28;20207;-71
2021/06/21 06:27:32;;;;;;;5.10;1.73;;;;;;;28.52;56.04;69141.31;5050182;28;20206;-70
2021/06/21 06:29:59;;;;;;;6.67;1.77;;;;;;;28.55;59.28;69144.19;5054138;28;20687;-74
2021/06/21 06:32:26;;;;;;;3.37;1.20;;;;;;;28.59;57.29;69149.09;5050230;28;20209;-71
2021/06/21 06:34:54;;;;;;;5.37;1.60;;;;;;;28.65;56.91;69156.31;5050754;28;20202;-74
2021/06/21 06:37:22;;;;;;;6.60;1.80;;;;;;;28.73;56.83;69164.41;5052200;28;20361;-72
2021/06/21 06:39:49;;;;;;;4.20;1.40;;;;;;;28.75;59.25;69166.84;5056628;28;20199;-73
2021/06/21 06:42:17;;;;;;;4.03;1.40;;;;;;;28.82;56.99;69174.09;5057869;28;20210;-71
2021/06/21 06:44:45;;;;;;;5.97;1.70;;;;;;;28.91;54.62;69185.22;5052871;28;20208;-73
2021/06/21 06:47:12;;;;;;;7.03;1.83;;;;;;;29.02;53.31;69197.31;5052851;28;20210;-80
2021/06/21 06:49:40;;;;;;;3.30;1.10;;;;;;;29.08;54.23;69203.72;5042396;28;20228;-70
2021/06/21 06:52:08;;;;;;;3.77;1.67;;;;;;;29.12;54.41;69208.25;5050167;28;20680;-70
2021/06/21 06:54:45;;;;;;;6.60;1.67;;;;;;;29.19;53.80;69216.34;5047638;28;20639;-70
2021/06/21 06:57:12;;;;;;;3.47;1.30;;;;;;;29.26;53.57;69224.09;5048487;28;20207;-71
2021/06/21 06:59:41;;;;;;;5.23;1.47;;;;;;;29.37;51.03;69236.59;5045976;28;20201;-70
2021/06/21 07:02:10;;;;;;;6.13;1.53;;;;;;;29.48;49.01;69249.66;5049854;28;20458;-72
2021/06/21 07:04:38;;;;;;;4.50;1.37;;;;;;;29.60;46.80;69262.72;5048039;28;20303;-70
2021/06/21 07:07:07;;;;;;;6.37;1.93;;;;;;;29.72;46.04;69275.63;5049940;28;20239;-70
2021/06/21 07:09:35;;;;;;;4.20;1.50;;;;;;;29.86;44.28;69292.00;5048293;28;20314;-70
2021/06/21 07:12:03;;;;;;;3.00;1.30;;;;;;;29.94;47.38;69301.38;5049499;28;20213;-71
2021/06/21 07:14:30;;;;;;;6.70;1.27;;;;;;;29.98;48.67;69305.69;5044646;28;20227;-71
2021/06/21 07:16:59;;;;;;;4.10;1.20;;;;;;;30.07;46.41;69315.59;5050098;28;20224;-71
2021/06/21 07:19:26;;;;;;;6.10;1.10;;;;;;;30.16;46.61;69326.31;5047858;28;20207;-71
2021/06/21 07:21:54;;;;;;;4.40;1.27;;;;;;;30.16;47.27;69326.53;5047271;28;20207;-71
2021/06/21 07:24:22;;;;;;;4.30;1.43;;;;;;;30.25;45.15;69336.16;5048204;28;20236;-71
2021/06/21 07:26:52;;;;;;;2.08;1.00;;;;;;;30.28;47.64;69340.25;5049640;28;20209;-71
2021/06/21 07:29:19;;;;;;;2.55;1.05;;;;;;;30.37;43.05;69350.63;5047615;28;20251;-71
2021/06/21 07:31:47;;;;;;;3.03;1.23;;;;;;;30.52;40.86;69368.03;5046862;28;20204;-72
2021/06/21 07:34:16;;;;;;;3.47;1.23;;;;;;;30.64;40.50;69380.94;5047960;28;20235;-71
2021/06/21 07:36:43;;;;;;;2.67;1.20;;;;;;;30.76;40.21;69394.16;5047374;28;20202;-71
2021/06/21 07:39:11;;;;;;;6.03;1.33;;;;;;;30.86;40.77;69405.91;5049658;28;20202;-71
2021/06/21 07:41:38;;;;;;;2.28;1.00;;;;;;;30.99;40.29;69420.59;5045252;28;20213;-72
2021/06/21 07:44:06;;;;;;;4.03;1.20;;;;;;;31.11;39.37;69434.34;5048040;28;20225;-70
2021/06/21 07:46:33;;;;;;;3.97;1.40;;;;;;;31.22;40.71;69446.00;5042166;28;20206;-70
2021/06/21 07:49:01;;;;;;;5.82;1.10;;;;;;;31.33;38.81;69458.22;5048666;28;20202;-71
2021/06/21 07:51:31;;;;;;;6.15;1.20;;;;;;;31.43;38.73;69469.81;5046148;28;20297;-72
2021/06/21 07:53:59;;;;;;;5.03;1.30;;;;;;;31.46;41.28;69473.56;5048337;28;20579;-71
2021/06/21 07:56:26;;;;;;;3.60;1.00;;;;;;;31.58;37.26;69486.50;5049289;28;20954;-71
2021/06/21 07:58:53;;;;;;;4.78;1.63;;;;;;;31.66;39.42;69496.47;5046733;28;20202;-71
2021/06/21 08:01:21;;;;;;;6.20;1.33;;;;;;;31.77;38.46;69508.31;5047477;28;20230;-72
2021/06/21 08:03:48;;;;;;;2.65;1.10;;;;;;;31.86;37.45;69518.13;5049113;28;20226;-72
2021/06/21 08:06:16;;;;;;;7.40;1.35;;;;;;;31.99;36.75;69532.31;5048508;28;20210;-72
2021/06/21 08:08:44;;;;;;;5.70;1.52;;;;;;;32.07;37.88;69542.59;5042025;28;20229;-71
2021/06/21 08:11:13;;;;;;;6.55;1.20;;;;;;;32.18;37.52;69554.56;5045236;28;20699;-72
2021/06/21 08:13:40;;;;;;;8.35;1.25;;;;;;;32.23;38.01;69560.88;5044587;28;20230;-72
2021/06/21 08:16:08;;;;;;;6.15;1.58;;;;;;;32.30;37.62;69567.91;5049141;28;20220;-72
2021/06/21 08:18:36;;;;;;;2.08;1.10;;;;;;;32.41;36.52;69580.25;5056324;28;20567;-72
2021/06/21 08:21:03;;;;;;;4.20;1.58;;;;;;;32.51;34.85;69591.75;5058305;28;20301;-71
2021/06/21 08:23:32;;;;;;;3.75;1.27;;;;;;;32.59;35.82;69600.25;5060452;28;20223;-72
2021/06/21 08:26:01;;;;;;;3.95;1.10;;;;;;;32.63;37.12;69604.84;5064536;28;20209;-72
2021/06/21 08:28:28;;;;;;;4.35;1.52;;;;;;;32.67;37.57;69609.75;5069691;28;20197;-72
2021/06/21 08:30:56;;;;;;;3.15;1.10;;;;;;;32.74;36.08;69618.41;5048609;28;20687;-72
2021/06/21 08:33:23;;;;;;;2.22;1.10;;;;;;;32.77;37.94;69621.59;5052221;28;20233;-71
2021/06/21 08:35:51;;;;;;;4.95;1.30;;;;;;;32.78;40.75;69622.31;5051019;28;20198;-71
2021/06/21 08:38:18;;;;;;;2.90;1.10;;;;;;;32.76;39.51;69620.44;5052308;28;20216;-70
2021/06/21 08:40:45;;;;;;;7.95;1.75;;;;;;;32.84;37.53;69629.53;5051834;28;20206;-72
2021/06/21 08:43:14;;;;;;;7.65;1.25;;;;;;;32.88;37.22;69633.75;5051135;28;20217;-70
2021/06/21 08:45:43;;;;;;;4.95;1.35;;;;;;;32.98;36.51;69644.53;5050561;28;20212;-70
2021/06/21 08:48:11;;;;;;;3.42;1.20;;;;;;;33.03;37.63;69649.88;5051774;28;20709;-70
2021/06/21 08:50:39;;;;;;;3.85;1.40;;;;;;;33.10;37.29;69658.53;5052161;28;20707;-71
2021/06/21 08:53:07;;;;;;;6.70;1.38;;;;;;;33.14;37.08;69662.75;5052025;28;20244;-70
2021/06/21 08:55:34;;;;;;;3.13;1.15;;;;;;;33.21;35.86;69670.94;5047341;28;20217;-71
2021/06/21 08:58:03;;;;;;;4.60;1.23;;;;;;;33.26;36.24;69676.25;5051486;28;20222;-70
2021/06/21 09:00:32;;;;;;;2.78;1.58;;;;;;;33.31;36.69;69682.34;5052264;28;20735;-73
2021/06/21 09:03:02;;;;;;;3.33;1.00;;;;;;;33.35;34.30;69686.50;5048853;28;20252;-70
2021/06/21 09:05:31;;;;;;;4.38;1.15;;;;;;;33.43;33.36;69696.03;5049031;28;20253;-70
2021/06/21 09:08:03;;;;;;;4.40;1.33;;;;;;;33.47;34.68;69700.31;5048450;28;20217;-72
2021/06/21 09:10:32;;;;;;;2.85;1.15;;;;;;;33.45;37.28;69697.53;5049561;28;20228;-71
2021/06/21 09:13:05;;;;;;;1.85;0.95;;;;;;;33.45;35.83;69697.97;5050683;28;20222;-70
2021/06/21 09:15:36;;;;;;;3.05;1.30;;;;;;;33.41;38.15;69692.88;5049546;28;20644;-70
2021/06/21 09:18:30;;;;;;;4.55;1.10;;;;;;;33.42;37.29;69694.13;5052020;28;20212;-69
2021/06/21 09:21:20;;;;;;;2.45;1.10;;;;;;;33.41;37.84;69692.81;5048218;28;20202;-69
2021/06/21 09:23:48;;;;;;;3.35;1.30;;;;;;;33.41;36.46;69692.66;5049197;28;20226;-69
2021/06/21 09:26:18;;;;;;;6.97;1.30;;;;;;;33.35;39.50;69685.25;5048742;28;20206;-70
2021/06/21 09:28:45;;;;;;;3.70;1.10;;;;;;;33.33;38.10;69682.84;5051201;28;20206;-68
2021/06/21 09:31:14;;;;;;;1.98;1.10;;;;;;;33.29;37.94;69678.03;5050026;28;20225;-68
2021/06/21 09:33:42;;;;;;;4.63;1.10;;;;;;;33.31;36.96;69680.16;5047297;28;20222;-69
2021/06/21 09:36:10;;;;;;;5.82;1.40;;;;;;;33.37;35.19;69687.38;5050825;28;20206;-68
2021/06/21 09:38:37;;;;;;;4.78;1.55;;;;;;;33.41;34.84;69692.25;5051315;28;20204;-68
2021/06/21 09:41:04;;;;;;;2.28;1.15;;;;;;;33.48;34.92;69698.97;5046570;28;20202;-72
2021/06/21 09:43:33;;;;;;;5.32;1.42;;;;;;;33.46;36.26;69697.34;5049227;28;20233;-73
2021/06/21 09:46:10;;;;;;;4.28;1.30;;;;;;;33.46;35.96;69696.28;5049844;28;20569;-72
2021/06/21 09:48:41;;;;;;;4.80;1.30;;;;;;;33.50;34.21;69701.50;5050903;28;20198;-72
2021/06/21 09:51:19;;;;;;;2.58;1.10;;;;;;;33.60;32.80;69712.47;5049048;28;20725;-72
2021/06/21 09:53:54;;;;;;;2.53;1.20;;;;;;;33.57;34.72;69709.41;5042980;28;20316;-72
2021/06/21 09:56:40;;;;;;;7.60;1.50;;;;;;;33.58;35.39;69711.03;5048221;28;20206;-73
2021/06/21 09:59:21;;;;;;;5.75;1.55;;;;;;;33.61;34.75;69714.50;5050565;28;20212;-73
2021/06/21 10:02:05;;;;;;;5.47;1.40;;;;;;;33.67;33.76;69720.66;5048408;28;20202;-72
2021/06/21 10:04:35;;;;;;;4.38;1.25;;;;;;;33.73;35.13;69728.06;5048169;28;20765;-72
2021/06/21 10:07:03;;;;;;;3.33;1.05;;;;;;;33.78;34.66;69734.50;5050775;28;20186;-72
2021/06/21 10:09:31;;;;;;;5.57;1.55;;;;;;;33.87;33.75;69744.44;5050197;28;20204;-72
2021/06/21 10:11:58;;;;;;;2.80;1.17;;;;;;;33.93;32.63;69751.50;5051760;28;20527;-76
2021/06/21 10:14:27;;;;;;;6.45;1.52;;;;;;;33.90;34.67;69747.28;5050234;28;20596;-76
2021/06/21 10:16:55;;;;;;;2.00;1.15;;;;;;;33.92;33.50;69750.09;5047698;28;20568;-72
2021/06/21 10:19:23;;;;;;;3.90;1.33;;;;;;;33.85;34.94;69742.75;5050714;28;20263;-77
2021/06/21 10:21:55;;;;;;;2.75;1.10;;;;;;;33.86;34.68;69743.03;5051077;28;20197;-76
2021/06/21 10:24:26;;;;;;;3.42;1.35;;;;;;;33.94;32.53;69753.16;5045956;28;20318;-72
2021/06/21 10:26:54;;;;;;;3.08;1.17;;;;;;;34.01;31.24;69760.34;5051335;28;20290;-73
2021/06/21 10:29:23;;;;;;;3.85;1.05;;;;;;;34.04;32.53;69763.63;5049081;28;20212;-71
2021/06/21 10:31:50;;;;;;;5.75;1.55;;;;;;;34.04;32.32;69763.84;5050836;28;20221;-74
2021/06/21 10:34:19;;;;;;;5.68;1.45;;;;;;;34.01;34.57;69760.38;5046964;28;20601;-74
2021/06/21 10:36:48;;;;;;;2.42;1.10;;;;;;;33.98;33.46;69756.59;5049507;28;20202;-73
2021/06/21 10:39:19;;;;;;;3.13;0.90;;;;;;;33.99;32.51;69756.88;5048001;28;20260;-72
2021/06/21 10:42:19;;;;;;;3.80;1.45;;;;;;;34.06;32.41;69764.91;5048763;28;20201;-76
2021/06/21 10:44:49;;;;;;;4.63;1.33;;;;;;;34.15;31.50;69774.81;5047965;28;20964;-71
2021/06/21 10:47:28;;;;;;;4.20;1.27;;;;;;;34.26;30.89;69787.47;5049876;28;20246;-70
2021/06/21 10:49:58;;;;;;;4.70;1.27;;;;;;;34.31;31.93;69792.78;5048088;28;20244;-70
2021/06/21 10:52:42;;;;;;;3.40;1.17;;;;;;;34.42;28.77;69805.63;5050401;28;20713;-70
2021/06/21 10:55:35;;;;;;;4.25;1.30;;;;;;;34.49;30.38;69813.66;5050967;28;20198;-75
2021/06/21 10:58:04;;;;;;;2.72;1.17;;;;;;;34.60;29.07;69825.44;5045465;28;20222;-75
2021/06/21 11:00:34;;;;;;;4.75;1.20;;;;;;;34.62;29.79;69827.81;5052770;28;20197;-71
2021/06/21 11:03:01;;;;;;;2.90;1.10;;;;;;;34.67;29.13;69833.00;5050820;28;20232;-71
2021/06/21 11:05:39;;;;;;;1.92;1.10;;;;;;;34.80;29.38;69847.69;5050125;28;20204;-71
2021/06/21 11:08:14;;;;;;;4.93;1.50;;;;;;;34.91;27.89;69859.66;5047014;28;20215;-71
2021/06/21 11:10:43;;;;;;;2.13;1.05;;;;;;;35.02;27.29;69871.88;5047238;28;20244;-70
2021/06/21 11:13:42;;;;;;;3.03;1.00;;;;;;;35.17;26.23;69888.56;5049062;28;20221;-69
2021/06/21 11:16:25;;;;;;;2.72;1.20;;;;;;;35.30;25.77;69903.69;5048003;28;20236;-69
2021/06/21 11:19:26;;;;;;;3.80;1.20;;;;;;;35.35;27.65;69909.31;5049558;28;20233;-71
2021/06/21 11:21:55;;;;;;;3.88;1.40;;;;;;;35.46;26.79;69921.22;5048562;28;20201;-71
2021/06/21 11:24:52;;;;;;;3.60;1.00;;;;;;;35.51;28.47;69927.41;5047896;28;20256;-71
2021/06/21 11:27:22;;;;;;;3.47;1.40;;;;;;;35.51;29.33;69926.38;5049592;28;20216;-71
2021/06/21 11:29:54;;;;;;;5.20;1.20;;;;;;;35.56;27.67;69931.66;5053398;28;20609;-72
2021/06/21 11:32:22;;;;;;;4.72;1.20;;;;;;;35.58;28.23;69934.38;5069466;28;20213;-73
2021/06/21 11:34:54;;;;;;;3.42;1.38;;;;;;;35.53;29.28;69928.25;5071944;28;20269;-71
2021/06/21 11:37:37;;;;;;;2.65;1.13;;;;;;;35.57;27.54;69932.13;5071276;28;20205;-72
2021/06/21 11:40:27;;;;;;;2.40;1.00;;;;;;;35.61;26.88;69937.13;5055951;28;20262;-71
2021/06/21 11:43:18;;;;;;;3.15;1.10;;;;;;;35.66;26.71;69942.31;5052758;28;20253;-71
2021/06/21 11:45:59;;;;;;;2.42;1.05;;;;;;;35.73;27.08;69951.00;5050195;28;20205;-73
2021/06/21 11:48:30;;;;;;;2.65;1.10;;;;;;;35.86;27.37;69964.66;5050868;28;20313;-72